x

Capel Curig Saws (03305) Weather Station

12:00 - Thu 5th Mar 2015 All times are GMT.

  • Wind
    31mph, 41mph gusts
  • Luft Temp 45°f
  • Sea Pressure 1035mb
  • Capel Curig Saws
  • Capel Curig Saws

More Historic Weather Station data

Upgrade to MSW Pro to gain access to the past 30 days of data for over 8000 Wavebouys and Weather Stations around the globe.

Join Pro

Comparision Forecast

View Surf forecast
   
Do 03/05 12:00 31 41 mph 1035mb 45f
11:00 31 43 mph 1036mb 45f
10:00 30 41 mph 1035mb 44f
9:00 30 44 mph 1036mb 43f
8:00 29 40 mph 1036mb 44f
7:00 26 38 mph 1036mb 43f
6:00 26 40 mph 1036mb 43f
5:00 26 36 mph 1036mb 43f
4:00 25 34 mph 1036mb 43f
3:00 24 37 mph 1036mb 43f
2:00 17
mph
1037mb 43f
1:00 14
mph
1037mb 42f
12:00 8
mph
1038mb 39f
Mi 03/04 11:00 14
mph
1038mb 38f
10:00 16
mph
1038mb 38f
9:00 16
mph
1038mb 39f
8:00 10
mph
1038mb 36f
7:00 9
mph
1037mb 36f
6:00 9
mph
1036mb 39f
5:00 15
mph
1035mb 42f
4:00 9
mph
1035mb 42f
3:00 10
mph
1034mb 43f
2:00 16
mph
1033mb 42f
1:00 10 22 mph 1032mb 45f
12:00 16
mph
1032mb 42f
11:00 19 29 mph 1031mb 41f
10:00 19 34 mph 1030mb 40f
9:00 17 34 mph 1029mb 39f
8:00 19 31 mph 1028mb 39f
7:00 18 33 mph 1027mb 38f
6:00 19 33 mph 1025mb 38f
5:00 21 38 mph 1024mb 38f
4:00 23 40 mph 1023mb 38f
Di 03/03 8:00 29 39 mph 1017mb 39f
7:00 19 41 mph 1016mb 38f
6:00 24 41 mph 1015mb 35f
5:00 31 43 mph 1014mb 39f
4:00 29 45 mph 1014mb 39f
3:00 26 34 mph 1014mb 39f
2:00 25 37 mph 1013mb 39f
1:00 21 39 mph 1013mb 38f
12:00 19 36 mph 1013mb 38f
11:00 21 32 mph 1012mb 38f
10:00 23 38 mph 1011mb 37f
9:00 26 39 mph 1011mb 37f
8:00 26 39 mph 1010mb 37f
7:00 26 39 mph 1010mb 37f
6:00 15
mph
1009mb 37f
5:00 18 36 mph 1009mb 37f
4:00 23 31 mph 1009mb 38f
3:00 23 39 mph 1009mb 38f
2:00 23 36 mph 1009mb 38f
1:00 23 41 mph 1010mb 37f
12:00 28 37 mph 1010mb 37f
Mo 03/02 11:00 28 45 mph 1010mb 37f
10:00 31 40 mph 1010mb 37f
9:00 17 33 mph 1010mb 38f
8:00 18 40 mph 1009mb 37f
7:00 24 38 mph 1009mb 38f
6:00 26 38 mph 1008mb 39f
5:00 24 38 mph 1008mb 38f
4:00 29 39 mph 1008mb 39f
3:00 24 43 mph 1008mb 40f
2:00 30 43 mph 1008mb 39f
1:00 31 47 mph 1007mb 38f
12:00 32 52 mph 1006mb 38f
11:00 31 51 mph 1005mb 37f
10:00 31 53 mph 1004mb 37f
9:00 36 55 mph 1002mb 36f
8:00 38 52 mph 1001mb 35f
7:00 33 54 mph 999mb 36f
6:00 28 53 mph 998mb 37f
5:00 30 49 mph 998mb 38f
4:00 23 32 mph 998mb 38f
3:00 19 29 mph 999mb 37f
2:00 22 44 mph 999mb 37f
1:00 18 34 mph 999mb 38f
12:00 28 40 mph 998mb 39f
So 03/01 11:00 23 36 mph 998mb 39f
10:00 25 37 mph 998mb 39f
9:00 24 40 mph 997mb 39f
8:00 25 40 mph 997mb 39f
7:00 31 48 mph 996mb 39f
6:00 28 41 mph 995mb 39f
5:00 26 44 mph 994mb 38f
4:00 16 33 mph 992mb 37f
3:00 31 56 mph 992mb 36f
2:00 22 39 mph 994mb 36f
1:00 28 41 mph 995mb 38f